Time;durP1;ratioP1;P1;durP2;ratioP2;P2;SDS_P1;SDS_P2;PMS_P1;PMS_P2;Temp;Humidity;BMP_temperature;BMP_pressure;BME280_temperature;BME280_humidity;BME280_pressure;Samples;Min_cycle;Max_cycle;Signal;HPM_P1;HPM_P2
2022/07/27 00:01:14;;;;;;;7.50;3.45;;;;;;;20.50;63.94;92733.84;2067817;69;20168;-75
2022/07/27 00:03:40;;;;;;;5.38;2.95;;;;;;;20.45;65.27;92735.84;2067784;69;20151;-75
2022/07/27 00:06:07;;;;;;;9.35;3.45;;;;;;;20.51;63.86;92735.28;2067867;69;20160;-75
2022/07/27 00:08:33;;;;;;;5.72;2.95;;;;;;;20.56;64.00;92743.28;2067998;69;20591;-75
2022/07/27 00:10:58;;;;;;;5.30;3.33;;;;;;;20.63;63.87;92741.31;2068040;69;20161;-75
2022/07/27 00:13:24;;;;;;;8.35;3.00;;;;;;;20.53;64.58;92736.06;2071122;69;20148;-75
2022/07/27 00:15:50;;;;;;;9.65;3.33;;;;;;;20.50;64.87;92726.00;2068055;69;20232;-75
2022/07/27 00:18:15;;;;;;;5.93;2.92;;;;;;;20.50;65.19;92730.97;2071256;69;20292;-76
2022/07/27 00:20:41;;;;;;;7.30;3.10;;;;;;;20.55;64.63;92738.25;2071180;69;20145;-76
2022/07/27 00:23:07;;;;;;;8.35;3.20;;;;;;;20.45;65.76;92726.53;2071412;69;20151;-75
2022/07/27 00:25:34;;;;;;;5.78;2.80;;;;;;;20.41;65.61;92723.59;2071486;69;20144;-75
2022/07/27 00:28:01;;;;;;;7.00;2.90;;;;;;;20.39;65.69;92717.78;2071143;69;20223;-75
2022/07/27 00:30:26;;;;;;;8.23;3.00;;;;;;;20.34;65.51;92711.25;2065079;69;20148;-75
2022/07/27 00:32:52;;;;;;;7.35;2.92;;;;;;;20.46;64.65;92714.41;2067480;69;20156;-75
2022/07/27 00:35:18;;;;;;;7.97;3.20;;;;;;;20.54;64.00;92713.94;2071109;69;20284;-75
2022/07/27 00:37:44;;;;;;;6.15;3.08;;;;;;;20.45;65.34;92701.53;2071136;69;20515;-75
2022/07/27 00:40:10;;;;;;;5.78;3.00;;;;;;;20.40;65.15;92699.25;2071123;69;20144;-75
2022/07/27 00:42:37;;;;;;;7.32;3.13;;;;;;;20.37;64.87;92687.03;2071251;69;20160;-74
2022/07/27 00:45:04;;;;;;;5.57;3.28;;;;;;;20.51;64.33;92684.53;2067842;69;20225;-76
2022/07/27 00:47:31;;;;;;;6.93;3.10;;;;;;;20.35;65.47;92677.69;2071118;69;20606;-75
2022/07/27 00:49:57;;;;;;;6.30;3.28;;;;;;;20.32;65.54;92679.78;2071122;69;20643;-76
2022/07/27 00:52:24;;;;;;;9.57;3.25;;;;;;;20.34;65.34;92671.22;2067856;69;20509;-76
2022/07/27 00:54:50;;;;;;;6.18;2.80;;;;;;;20.29;65.74;92661.09;2071234;69;20235;-75
2022/07/27 00:57:16;;;;;;;4.63;3.00;;;;;;;20.19;65.94;92655.16;2070795;69;20147;-75
2022/07/27 00:59:42;;;;;;;9.05;3.10;;;;;;;20.14;66.25;92653.59;2071015;69;20172;-75
2022/07/27 01:02:08;;;;;;;12.52;3.30;;;;;;;20.17;66.08;92652.97;2071216;69;20535;-74
2022/07/27 01:04:35;;;;;;;4.90;2.80;;;;;;;20.19;65.01;92653.03;2067830;69;20302;-76
2022/07/27 01:07:02;;;;;;;5.50;3.10;;;;;;;20.07;65.86;92658.44;2071009;69;20330;-75
2022/07/27 01:12:18;;;;;;;4.85;3.33;;;;;;;20.12;65.34;92653.56;2070905;69;20223;-76
2022/07/27 01:14:45;;;;;;;8.15;3.22;;;;;;;20.09;65.92;92649.19;2071064;69;20611;-76
2022/07/27 01:17:11;;;;;;;6.32;3.20;;;;;;;20.02;65.84;92649.06;2067558;69;20144;-76
2022/07/27 01:19:36;;;;;;;5.47;2.95;;;;;;;19.91;66.21;92646.59;2070928;69;20506;-76
2022/07/27 01:22:03;;;;;;;4.30;3.22;;;;;;;19.96;66.35;92648.88;2067807;69;20180;-75
2022/07/27 01:24:29;;;;;;;5.45;3.17;;;;;;;20.01;66.82;92636.16;2071176;69;20227;-75
2022/07/27 01:26:54;;;;;;;6.20;2.92;;;;;;;20.12;65.19;92636.41;2067904;69;20223;-75
2022/07/27 01:29:20;;;;;;;9.38;3.30;;;;;;;20.05;66.52;92641.25;2071143;69;20885;-75
2022/07/27 01:31:46;;;;;;;6.78;3.22;;;;;;;20.00;66.37;92633.97;2071316;69;20227;-75
2022/07/27 01:34:12;;;;;;;4.40;3.03;;;;;;;19.95;66.10;92638.13;2070902;69;20187;-75
2022/07/27 01:36:38;;;;;;;7.78;3.60;;;;;;;19.88;66.29;92636.53;2071139;69;20235;-75
2022/07/27 01:39:03;;;;;;;7.03;3.10;;;;;;;19.43;68.85;92638.94;2070971;69;20145;-75
2022/07/27 01:41:29;;;;;;;6.00;2.90;;;;;;;19.90;66.28;92648.75;2071001;69;20290;-75
2022/07/27 01:43:55;;;;;;;6.75;3.33;;;;;;;19.93;66.50;92638.81;2067816;69;20542;-75
2022/07/27 01:46:22;;;;;;;6.05;3.22;;;;;;;19.86;66.44;92642.91;2071259;69;20167;-75
2022/07/27 01:48:47;;;;;;;4.97;3.05;;;;;;;19.49;68.12;92656.22;2071347;69;20168;-76
2022/07/27 01:51:13;;;;;;;5.07;3.22;;;;;;;19.59;67.68;92664.31;2071467;69;20246;-76
2022/07/27 01:53:39;;;;;;;7.00;3.22;;;;;;;19.87;66.46;92660.78;2071293;69;20159;-76
2022/07/27 01:56:09;;;;;;;6.38;3.10;;;;;;;19.87;67.27;92660.78;2068008;69;20216;-76
2022/07/27 01:58:36;;;;;;;7.63;3.33;;;;;;;19.84;67.47;92668.59;2065137;69;20608;-76
2022/07/27 02:01:02;;;;;;;5.03;3.17;;;;;;;19.91;67.55;92669.47;2071278;69;20148;-76
2022/07/27 02:03:29;;;;;;;6.15;3.15;;;;;;;20.02;66.81;92669.06;2071061;69;20587;-76
2022/07/27 02:05:54;;;;;;;4.93;3.20;;;;;;;19.92;67.76;92668.78;2071272;69;20139;-76
2022/07/27 02:08:20;;;;;;;5.63;3.38;;;;;;;19.90;68.16;92665.16;2067822;69;20247;-76
2022/07/27 02:13:31;;;;;;;9.43;3.50;;;;;;;19.50;68.95;92665.50;2071206;69;20175;-76
2022/07/27 02:15:56;;;;;;;7.05;3.55;;;;;;;19.06;71.79;92665.72;2071183;69;20160;-76
2022/07/27 02:18:22;;;;;;;4.25;3.25;;;;;;;19.16;70.53;92656.72;2067787;69;20190;-76
2022/07/27 02:20:48;;;;;;;7.03;3.22;;;;;;;19.59;67.84;92658.59;2071189;69;20583;-76
2022/07/27 02:23:14;;;;;;;6.80;3.33;;;;;;;19.63;68.97;92655.16;2071234;69;20179;-76
2022/07/27 02:25:40;;;;;;;6.70;3.75;;;;;;;19.58;69.31;92650.72;2071111;69;20155;-76
2022/07/27 02:28:06;;;;;;;6.55;3.38;;;;;;;19.64;68.07;92653.75;2071259;69;20236;-76
2022/07/27 02:30:32;;;;;;;7.55;3.40;;;;;;;19.81;67.79;92655.66;2067768;69;20257;-76
2022/07/27 02:32:57;;;;;;;6.50;3.20;;;;;;;19.76;68.57;92656.94;2071133;69;20156;-76
2022/07/27 02:35:23;;;;;;;4.78;3.30;;;;;;;19.71;69.32;92649.69;2067843;69;20179;-76
2022/07/27 02:37:49;;;;;;;6.88;3.05;;;;;;;19.81;67.76;92652.78;2071104;69;20209;-75
2022/07/27 02:40:18;;;;;;;7.45;3.22;;;;;;;19.78;67.96;92654.84;2071145;69;20159;-77
2022/07/27 02:42:45;;;;;;;5.03;3.47;;;;;;;19.82;68.02;92651.38;2071096;69;20178;-75
2022/07/27 02:45:10;;;;;;;6.78;3.05;;;;;;;19.83;67.61;92649.97;2071301;69;20156;-75
2022/07/27 02:47:38;;;;;;;8.07;3.35;;;;;;;19.43;69.15;92641.06;2070986;69;20219;-75
2022/07/27 02:50:06;;;;;;;5.15;3.10;;;;;;;19.47;69.35;92644.75;2071124;69;20243;-75
2022/07/27 02:52:32;;;;;;;5.18;3.47;;;;;;;19.65;68.92;92640.94;2067780;69;20215;-75
2022/07/27 02:54:59;;;;;;;9.60;3.10;;;;;;;19.65;68.25;92640.94;2071223;69;20224;-75
2022/07/27 02:57:25;;;;;;;4.35;3.10;;;;;;;19.75;67.98;92638.34;2067746;69;20179;-75
2022/07/27 02:59:50;;;;;;;10.15;3.42;;;;;;;19.72;68.87;92631.13;2071240;69;20239;-75
2022/07/27 03:02:16;;;;;;;6.30;3.72;;;;;;;19.58;69.78;92634.31;2070987;69;20210;-75
2022/07/27 03:04:42;;;;;;;5.57;3.38;;;;;;;19.64;68.39;92636.63;2071096;69;20224;-75
2022/07/27 03:07:08;;;;;;;4.05;3.20;;;;;;;19.64;68.76;92634.50;2067810;69;20154;-75
2022/07/27 03:09:34;;;;;;;5.70;3.13;;;;;;;19.71;67.95;92644.69;2071046;69;20237;-75
2022/07/27 03:12:01;;;;;;;4.28;2.85;;;;;;;19.64;68.63;92648.03;2071023;69;20239;-76
2022/07/27 03:14:27;;;;;;;6.25;3.33;;;;;;;19.59;68.87;92640.75;2067739;69;20148;-76
2022/07/27 03:16:52;;;;;;;6.03;3.20;;;;;;;19.62;68.53;92642.31;2071098;69;20553;-76
2022/07/27 03:19:18;;;;;;;7.55;3.15;;;;;;;19.59;68.47;92638.63;2064904;69;20560;-76
2022/07/27 03:21:44;;;;;;;5.50;3.20;;;;;;;19.55;68.83;92635.66;2071823;69;20610;-76
2022/07/27 03:24:10;;;;;;;8.80;3.50;;;;;;;19.07;70.69;92635.06;2071648;69;20140;-75
2022/07/27 03:26:35;;;;;;;8.07;3.70;;;;;;;18.66;72.62;92628.16;2068226;69;20150;-75
2022/07/27 03:29:01;;;;;;;6.88;3.70;;;;;;;19.18;70.00;92623.25;2071650;69;20132;-74
2022/07/27 03:31:27;;;;;;;7.55;4.03;;;;;;;19.28;69.89;92629.22;2068235;69;20140;-75
2022/07/27 03:33:53;;;;;;;6.53;4.07;;;;;;;19.30;70.07;92625.72;2071540;69;20265;-74
2022/07/27 03:36:18;;;;;;;8.88;3.60;;;;;;;19.35;69.87;92627.28;2065511;69;20243;-74
2022/07/27 03:38:44;;;;;;;10.00;3.97;;;;;;;19.36;69.25;92630.88;2071518;69;20167;-75
2022/07/27 03:41:10;;;;;;;7.82;3.65;;;;;;;19.41;69.78;92627.44;2071520;69;20192;-75
2022/07/27 03:43:36;;;;;;;7.47;3.40;;;;;;;19.41;68.16;92618.16;2071547;69;20580;-75
2022/07/27 03:46:01;;;;;;;5.00;3.30;;;;;;;19.46;68.79;92625.41;2071591;69;20148;-75
2022/07/27 03:48:29;;;;;;;7.28;3.33;;;;;;;19.42;68.87;92631.03;2071522;69;20563;-75
2022/07/27 03:50:54;;;;;;;5.68;3.60;;;;;;;19.17;70.19;92627.50;2071583;69;20236;-75
2022/07/27 03:53:20;;;;;;;7.00;3.28;;;;;;;19.25;69.68;92624.88;2071513;69;20239;-75
2022/07/27 03:55:47;;;;;;;4.72;3.30;;;;;;;19.47;68.42;92636.19;2068182;69;20192;-75
2022/07/27 03:58:13;;;;;;;6.90;3.55;;;;;;;19.19;70.19;92633.25;2071555;69;20586;-75
2022/07/27 04:00:38;;;;;;;5.72;3.35;;;;;;;19.13;70.34;92629.53;2068004;69;20152;-75
2022/07/27 04:03:04;;;;;;;4.45;3.53;;;;;;;19.19;69.94;92636.13;2071451;69;20160;-77
2022/07/27 04:05:30;;;;;;;6.00;3.42;;;;;;;19.17;69.69;92630.34;2071519;69;20560;-77
2022/07/27 04:07:56;;;;;;;5.32;3.78;;;;;;;19.33;69.14;92630.06;2068044;69;20139;-76
2022/07/27 04:10:23;;;;;;;5.53;3.80;;;;;;;19.28;70.06;92637.06;2071435;69;20155;-75
2022/07/27 04:12:49;;;;;;;7.55;3.85;;;;;;;19.36;69.21;92633.72;2071442;69;20164;-76
2022/07/27 04:15:15;;;;;;;5.60;3.88;;;;;;;19.36;69.63;92637.28;2071396;69;20144;-75
2022/07/27 04:17:41;;;;;;;6.35;3.35;;;;;;;19.39;68.84;92633.09;2071276;69;20143;-75
2022/07/27 04:20:07;;;;;;;5.47;3.63;;;;;;;19.44;69.50;92642.50;2068196;69;20152;-75
2022/07/27 04:22:33;;;;;;;6.45;3.45;;;;;;;19.44;69.05;92648.22;2071425;69;20203;-75
2022/07/27 04:24:59;;;;;;;5.38;3.22;;;;;;;19.44;69.53;92648.22;2071482;69;20301;-75
2022/07/27 04:27:25;;;;;;;6.88;3.38;;;;;;;19.46;69.89;92648.25;2071250;69;20152;-75
2022/07/27 04:29:50;;;;;;;5.28;3.10;;;;;;;19.44;70.13;92651.78;2071493;69;20555;-75
2022/07/27 04:32:16;;;;;;;8.68;3.67;;;;;;;19.54;69.26;92645.63;2071410;69;20159;-76
2022/07/27 04:34:42;;;;;;;6.45;3.45;;;;;;;19.59;68.86;92655.75;2071582;69;20468;-76
2022/07/27 04:37:07;;;;;;;10.52;3.70;;;;;;;19.59;69.99;92655.75;2071418;69;20144;-76
2022/07/27 04:39:33;;;;;;;8.63;3.45;;;;;;;19.19;70.67;92650.38;2071542;69;20168;-75
2022/07/27 04:41:58;;;;;;;7.18;3.60;;;;;;;19.41;69.21;92650.28;2071405;69;20240;-75
2022/07/27 04:44:24;;;;;;;8.68;3.85;;;;;;;19.36;69.86;92645.84;2071414;69;20156;-75
2022/07/27 04:46:50;;;;;;;6.68;4.05;;;;;;;19.48;69.68;92649.06;2071438;69;20137;-75
2022/07/27 04:49:15;;;;;;;6.32;3.97;;;;;;;19.38;70.09;92651.63;2071235;69;20137;-75
2022/07/27 04:51:42;;;;;;;6.57;3.42;;;;;;;19.44;68.92;92646.09;2067960;69;20168;-75
2022/07/27 04:54:08;;;;;;;8.98;3.90;;;;;;;19.61;68.52;92653.00;2067993;69;20290;-75
2022/07/27 04:56:34;;;;;;;5.90;3.75;;;;;;;19.68;69.09;92656.72;2068073;69;20655;-76
2022/07/27 04:59:00;;;;;;;7.53;3.58;;;;;;;19.60;68.72;92654.38;2071332;69;20196;-75
2022/07/27 05:01:25;;;;;;;6.13;3.72;;;;;;;19.69;69.16;92653.19;2068029;69;20144;-76
2022/07/27 05:03:51;;;;;;;8.02;3.88;;;;;;;19.71;69.19;92653.25;2065036;69;20523;-75
2022/07/27 05:06:17;;;;;;;5.07;3.63;;;;;;;19.87;66.58;92655.78;2071277;69;20213;-75
2022/07/27 05:08:42;;;;;;;7.30;3.50;;;;;;;19.88;68.23;92653.66;2071282;69;20160;-75
2022/07/27 05:11:08;;;;;;;7.80;3.83;;;;;;;19.79;69.46;92658.44;2067885;69;20596;-76
2022/07/27 05:13:38;;;;;;;4.70;3.55;;;;;;;19.80;69.43;92657.78;2067889;69;20144;-75
2022/07/27 05:16:07;;;;;;;5.68;3.63;;;;;;;19.83;69.35;92658.53;2071465;69;20144;-74
2022/07/27 05:18:34;;;;;;;7.05;3.80;;;;;;;19.85;69.14;92660.75;2071211;69;20583;-74
2022/07/27 05:21:00;;;;;;;8.70;3.67;;;;;;;19.75;68.50;92655.50;2071425;69;20252;-76
2022/07/27 05:23:26;;;;;;;6.80;3.80;;;;;;;19.96;66.63;92654.59;2071454;69;20476;-74
2022/07/27 05:25:52;;;;;;;6.88;3.63;;;;;;;19.90;67.83;92659.44;2067822;69;20147;-74
2022/07/27 05:28:18;;;;;;;7.53;3.90;;;;;;;19.71;69.01;92661.81;2071269;69;20213;-75
2022/07/27 05:30:43;;;;;;;6.65;3.92;;;;;;;19.95;67.32;92663.84;2071338;69;20140;-73
2022/07/27 05:33:09;;;;;;;7.95;3.90;;;;;;;20.11;66.81;92672.81;2071172;69;20164;-75
2022/07/27 05:35:35;;;;;;;7.55;3.50;;;;;;;20.06;68.48;92674.13;2071339;69;20571;-75
2022/07/27 05:38:01;;;;;;;6.15;3.88;;;;;;;20.14;67.94;92676.47;2067886;69;20132;-73
2022/07/27 05:40:27;;;;;;;6.88;3.80;;;;;;;20.11;67.90;92664.25;2071338;69;20235;-74
2022/07/27 05:42:53;;;;;;;4.97;3.88;;;;;;;20.09;68.15;92672.78;2071099;69;20579;-74
2022/07/27 05:45:18;;;;;;;6.65;3.60;;;;;;;20.21;67.43;92673.09;2071292;69;20148;-75
2022/07/27 05:47:44;;;;;;;5.78;3.90;;;;;;;19.92;68.77;92677.34;2071094;69;20199;-74
2022/07/27 05:50:10;;;;;;;8.05;4.32;;;;;;;19.33;71.44;92677.88;2071202;69;20159;-74
2022/07/27 05:52:35;;;;;;;9.48;4.05;;;;;;;19.18;72.50;92680.31;2071274;69;20468;-74
2022/07/27 05:55:02;;;;;;;11.13;4.68;;;;;;;19.12;72.95;92677.31;2071212;69;20137;-75
2022/07/27 05:57:28;;;;;;;7.32;4.28;;;;;;;19.58;70.33;92682.84;2071293;69;20151;-73
2022/07/27 05:59:53;;;;;;;5.50;4.22;;;;;;;19.53;70.74;92681.28;2065056;69;20140;-74
2022/07/27 06:02:20;;;;;;;9.60;4.28;;;;;;;19.49;71.03;92681.19;2071134;69;20370;-73
2022/07/27 06:04:46;;;;;;;6.00;4.15;;;;;;;19.90;68.49;92676.59;2067764;69;20551;-74
2022/07/27 06:09:56;;;;;;;10.57;4.03;;;;;;;19.86;69.42;92677.19;2071294;69;20610;-76
2022/07/27 06:12:21;;;;;;;10.65;4.30;;;;;;;20.27;65.94;92681.09;2071127;69;20285;-75
2022/07/27 06:14:47;;;;;;;7.70;4.40;;;;;;;20.08;67.26;92682.03;2071110;69;20552;-76
2022/07/27 06:17:14;;;;;;;7.32;4.50;;;;;;;20.25;67.58;92678.91;2071214;69;20198;-74
2022/07/27 06:19:40;;;;;;;10.15;4.50;;;;;;;20.22;67.23;92676.66;2071173;69;20159;-73
2022/07/27 06:22:06;;;;;;;11.85;4.70;;;;;;;20.52;65.45;92686.00;2071115;69;20274;-74
2022/07/27 06:24:32;;;;;;;10.88;5.10;;;;;;;19.77;69.80;92684.09;2067714;69;20503;-76
2022/07/27 06:26:59;;;;;;;7.15;4.78;;;;;;;19.47;71.00;92679.00;2071056;69;20618;-76
2022/07/27 06:29:24;;;;;;;9.65;4.82;;;;;;;20.01;68.52;92679.00;2071006;69;20167;-75
2022/07/27 06:31:50;;;;;;;8.60;4.63;;;;;;;19.95;69.13;92681.00;2071076;69;20183;-75
2022/07/27 06:34:16;;;;;;;8.30;4.68;;;;;;;20.04;68.21;92671.22;2070992;69;20176;-76
2022/07/27 06:36:43;;;;;;;5.70;4.35;;;;;;;20.37;66.44;92674.88;2071084;69;20231;-75
2022/07/27 06:39:11;;;;;;;6.15;4.20;;;;;;;20.42;65.55;92674.28;2071210;69;20231;-77
2022/07/27 06:41:37;;;;;;;6.25;4.43;;;;;;;20.30;65.47;92674.75;2070871;69;20162;-77
2022/07/27 06:44:03;;;;;;;9.80;4.55;;;;;;;20.19;66.39;92681.59;2071192;69;20518;-75
2022/07/27 06:46:29;;;;;;;6.50;4.40;;;;;;;20.16;66.48;92673.66;2071369;69;20148;-76
2022/07/27 06:48:55;;;;;;;9.93;4.22;;;;;;;20.47;65.08;92673.00;2070998;69;20534;-76
2022/07/27 06:51:22;;;;;;;8.98;4.72;;;;;;;19.45;70.22;92672.50;2064879;69;20168;-75
2022/07/27 06:53:51;;;;;;;7.65;4.72;;;;;;;20.27;66.47;92675.38;2071426;69;20156;-75
2022/07/27 06:56:18;;;;;;;7.82;4.18;;;;;;;20.68;64.99;92677.06;2072359;69;20224;-73
2022/07/27 06:58:44;;;;;;;12.05;4.03;;;;;;;20.82;64.46;92670.94;2068408;69;20529;-74
2022/07/27 07:01:12;;;;;;;8.98;4.22;;;;;;;21.04;63.29;92667.84;2069193;69;20140;-74
2022/07/27 07:03:38;;;;;;;7.60;4.57;;;;;;;21.03;63.23;92670.00;2072279;69;20151;-74
2022/07/27 07:06:04;;;;;;;9.40;5.05;;;;;;;21.00;63.21;92662.03;2072858;69;20152;-75
2022/07/27 07:08:29;;;;;;;7.22;4.20;;;;;;;20.91;63.13;92663.28;2072326;69;20249;-75
2022/07/27 07:10:58;;;;;;;6.50;4.15;;;;;;;21.11;62.89;92655.13;2071716;69;20147;-74
2022/07/27 07:13:23;;;;;;;6.47;4.55;;;;;;;21.24;63.06;92661.81;2068216;69;20164;-74
2022/07/27 07:15:49;;;;;;;6.85;4.55;;;;;;;21.28;62.07;92653.31;2071855;69;20155;-75
2022/07/27 07:18:14;;;;;;;6.78;4.75;;;;;;;21.45;61.68;92651.53;2068331;69;20132;-76
2022/07/27 07:20:41;;;;;;;8.18;4.78;;;;;;;21.63;61.80;92646.16;2071811;69;20568;-75
2022/07/27 07:23:07;;;;;;;8.02;4.50;;;;;;;21.67;61.95;92654.84;2071588;69;20171;-75
2022/07/27 07:25:34;;;;;;;7.18;4.50;;;;;;;21.14;62.20;92644.44;2068190;69;20164;-75
2022/07/27 07:28:00;;;;;;;7.03;4.13;;;;;;;21.59;60.64;92640.34;2068203;69;20144;-75
2022/07/27 07:30:27;;;;;;;5.43;4.25;;;;;;;21.73;61.07;92643.47;2071624;69;20191;-76
2022/07/27 07:32:52;;;;;;;6.35;4.30;;;;;;;21.68;60.79;92632.66;2071329;69;20184;-75
2022/07/27 07:35:18;;;;;;;8.35;4.28;;;;;;;21.86;60.30;92635.84;2071596;69;20571;-75
2022/07/27 07:37:44;;;;;;;6.72;4.50;;;;;;;21.56;60.44;92630.25;2068130;69;20582;-76
2022/07/27 07:40:10;;;;;;;6.57;4.60;;;;;;;21.93;59.29;92630.94;2071657;69;20168;-75
2022/07/27 07:42:56;;;;;;;6.78;4.55;;;;;;;22.02;59.12;92638.97;2065892;69;20156;-76
2022/07/27 07:45:23;;;;;;;8.43;4.60;;;;;;;21.99;58.92;92637.50;2071910;69;20247;-76
2022/07/27 07:47:50;;;;;;;6.93;4.45;;;;;;;21.72;60.03;92639.19;2069411;69;20303;-75
2022/07/27 07:50:16;;;;;;;5.50;4.10;;;;;;;21.94;58.44;92641.69;2071622;69;20618;-76
2022/07/27 07:52:42;;;;;;;7.60;4.50;;;;;;;21.85;59.08;92642.97;2071486;69;20503;-76
2022/07/27 07:55:08;;;;;;;6.65;4.57;;;;;;;21.62;61.28;92641.81;2071476;69;20155;-75
2022/07/27 07:57:34;;;;;;;8.85;4.65;;;;;;;21.73;60.21;92648.50;2071498;69;20247;-75
2022/07/27 08:00:01;;;;;;;7.70;4.97;;;;;;;21.41;60.50;92642.88;2071404;69;20213;-77
2022/07/27 08:02:52;;;;;;;6.78;4.60;;;;;;;22.17;58.92;92644.97;2068265;69;20559;-75
2022/07/27 08:05:19;;;;;;;8.98;4.60;;;;;;;22.61;58.11;92644.97;2071354;69;20623;-75
2022/07/27 08:07:45;;;;;;;8.57;4.85;;;;;;;22.72;57.79;92640.81;2068032;69;20456;-75
2022/07/27 08:10:12;;;;;;;6.70;4.15;;;;;;;22.87;58.02;92641.78;2071382;69;20151;-75
2022/07/27 08:12:41;;;;;;;6.40;4.60;;;;;;;22.80;57.41;92637.34;2071268;69;20231;-75
2022/07/27 08:15:07;;;;;;;4.40;4.00;;;;;;;22.95;56.84;92641.16;2071435;69;20149;-75
2022/07/27 08:17:33;;;;;;;5.35;4.00;;;;;;;22.99;56.48;92635.47;2067957;69;20284;-75
2022/07/27 08:19:59;;;;;;;6.72;4.40;;;;;;;22.78;56.40;92634.47;2071322;69;20247;-76
2022/07/27 08:22:25;;;;;;;7.53;4.53;;;;;;;23.06;55.74;92628.41;2071565;69;20444;-75
2022/07/27 08:24:50;;;;;;;5.82;4.20;;;;;;;23.22;56.10;92628.59;2071354;69;20231;-76
2022/07/27 08:27:16;;;;;;;6.85;4.65;;;;;;;23.20;55.69;92630.75;2071349;69;20223;-76
2022/07/27 08:29:42;;;;;;;6.20;4.78;;;;;;;22.51;57.44;92625.47;2071461;69;20144;-75
2022/07/27 08:32:08;;;;;;;7.40;4.80;;;;;;;23.25;57.17;92623.63;2071196;69;20529;-75
2022/07/27 08:34:34;;;;;;;6.15;4.63;;;;;;;23.06;56.13;92625.53;2071453;69;20230;-75
2022/07/27 08:36:59;;;;;;;5.28;4.53;;;;;;;23.29;56.48;92621.53;2071349;69;20159;-75
2022/07/27 08:39:25;;;;;;;8.10;4.60;;;;;;;23.71;55.16;92626.34;2071178;69;20155;-75
2022/07/27 08:41:56;;;;;;;5.68;4.95;;;;;;;23.08;56.54;92620.53;2071195;69;20259;-76
2022/07/27 08:44:24;;;;;;;9.63;4.75;;;;;;;23.10;56.86;92614.13;2067938;69;20502;-76
2022/07/27 08:46:50;;;;;;;6.00;4.75;;;;;;;23.36;56.22;92619.44;2071308;69;20149;-75
2022/07/27 08:49:17;;;;;;;6.05;4.40;;;;;;;23.71;55.66;92614.84;2071240;69;20590;-76
2022/07/27 08:51:43;;;;;;;5.57;4.50;;;;;;;23.75;55.34;92625.66;2071300;69;20152;-76
2022/07/27 08:54:09;;;;;;;7.47;4.78;;;;;;;23.51;56.29;92606.00;2068022;69;20606;-76
2022/07/27 08:56:36;;;;;;;7.10;4.68;;;;;;;23.61;56.66;92611.13;2067973;69;20603;-76
2022/07/27 08:59:03;;;;;;;6.88;4.63;;;;;;;23.87;54.74;92616.44;2068006;69;20152;-76
2022/07/27 09:01:34;;;;;;;6.15;4.38;;;;;;;23.91;54.47;92608.56;2071290;69;20227;-78
2022/07/27 09:04:00;;;;;;;10.35;4.57;;;;;;;23.83;54.96;92606.34;2071212;69;20567;-75
2022/07/27 09:06:49;;;;;;;5.25;4.30;;;;;;;23.72;55.45;92613.41;2071343;69;20185;-76
2022/07/27 09:09:18;;;;;;;9.50;4.68;;;;;;;23.84;55.35;92615.69;2067974;69;20532;-76
2022/07/27 09:12:03;;;;;;;10.38;4.75;;;;;;;23.58;55.22;92608.22;2071191;69;20204;-76
2022/07/27 09:14:33;;;;;;;6.85;4.53;;;;;;;23.82;56.63;92602.03;2071297;69;20144;-75
2022/07/27 09:17:22;;;;;;;6.70;4.80;;;;;;;24.68;56.50;92596.28;2071136;69;20267;-76
2022/07/27 09:20:04;;;;;;;5.55;4.15;;;;;;;25.16;55.05;92603.78;2071276;69;20140;-76
2022/07/27 09:22:38;;;;;;;8.20;4.40;;;;;;;25.66;54.51;92596.75;2067893;69;20148;-77
2022/07/27 09:25:06;;;;;;;5.43;4.18;;;;;;;26.14;54.92;92599.03;2071379;69;20148;-76
2022/07/27 09:27:31;;;;;;;5.85;4.13;;;;;;;25.97;53.13;92595.41;2071309;69;20152;-77
2022/07/27 09:30:03;;;;;;;6.32;4.28;;;;;;;25.44;51.37;92600.31;2067932;69;20136;-76
2022/07/27 09:32:28;;;;;;;4.90;4.10;;;;;;;26.53;51.34;92581.78;2071177;69;20184;-76
2022/07/27 09:34:54;;;;;;;6.47;3.90;;;;;;;27.09;48.83;92588.91;2071226;69;20185;-76
2022/07/27 09:37:25;;;;;;;8.75;4.00;;;;;;;27.41;47.70;92584.47;2071204;69;20240;-77
2022/07/27 09:40:10;;;;;;;6.85;3.88;;;;;;;27.84;48.50;92587.91;2065040;69;20164;-76
2022/07/27 09:42:35;;;;;;;5.38;3.85;;;;;;;27.52;47.35;92580.81;2071315;69;20297;-76
2022/07/27 09:45:01;;;;;;;3.80;3.40;;;;;;;27.47;47.14;92582.28;2071266;69;20262;-76
2022/07/27 09:47:29;;;;;;;4.57;3.50;;;;;;;26.77;45.89;92586.78;2067774;69;20563;-76
2022/07/27 09:50:16;;;;;;;5.05;3.28;;;;;;;27.64;45.10;92582.22;2071276;69;20188;-77
2022/07/27 09:52:43;;;;;;;3.30;3.00;;;;;;;28.61;45.17;92577.97;2071294;69;20148;-76
2022/07/27 09:55:09;;;;;;;5.28;3.35;;;;;;;28.79;44.70;92572.03;2071262;69;20592;-76
2022/07/27 09:57:55;;;;;;;4.13;3.25;;;;;;;28.16;43.83;92571.78;2071291;69;20306;-78
2022/07/27 10:00:21;;;;;;;4.32;2.85;;;;;;;29.02;42.74;92586.31;2071230;69;20129;-77
2022/07/27 10:02:49;;;;;;;4.47;2.92;;;;;;;28.67;40.97;92574.31;2067794;69;20250;-77
2022/07/27 10:05:18;;;;;;;4.30;2.75;;;;;;;28.95;40.68;92574.06;2067868;69;20179;-78
2022/07/27 10:07:44;;;;;;;3.35;2.95;;;;;;;29.57;41.29;92571.22;2071101;69;20611;-78
2022/07/27 10:10:13;;;;;;;6.20;3.00;;;;;;;29.93;41.20;92570.03;2067965;69;20140;-78
2022/07/27 10:12:41;;;;;;;4.43;2.70;;;;;;;30.42;40.46;92566.41;2064447;69;20260;-78
2022/07/27 10:15:10;;;;;;;4.60;2.42;;;;;;;29.96;38.92;92562.00;2067771;69;20149;-78
2022/07/27 10:17:37;;;;;;;3.97;2.80;;;;;;;30.33;39.21;92568.00;2067182;69;20235;-77
2022/07/27 10:20:09;;;;;;;2.97;2.40;;;;;;;29.94;37.80;92568.56;2067268;69;20175;-75
2022/07/27 10:22:49;;;;;;;7.05;2.58;;;;;;;29.16;38.62;92562.25;2067275;69;20148;-76
2022/07/27 10:25:15;;;;;;;4.18;2.40;;;;;;;29.38;38.26;92567.81;2067789;69;20671;-76
2022/07/27 10:27:40;;;;;;;4.32;2.42;;;;;;;28.76;38.79;92561.91;2067836;69;20235;-76
2022/07/27 10:30:06;;;;;;;7.28;2.40;;;;;;;27.97;39.81;92553.84;2068220;69;20178;-76
2022/07/27 10:32:33;;;;;;;5.00;2.65;;;;;;;29.15;39.66;92552.13;2068038;69;20152;-76
2022/07/27 10:35:00;;;;;;;3.88;2.40;;;;;;;29.88;37.63;92557.03;2068166;69;20657;-76
2022/07/27 10:37:28;;;;;;;2.88;2.25;;;;;;;29.87;38.00;92555.59;2068187;69;20202;-76
2022/07/27 10:42:42;;;;;;;2.35;2.08;;;;;;;31.32;34.78;92542.34;2067660;69;20183;-76
2022/07/27 10:45:10;;;;;;;2.78;2.03;;;;;;;30.64;33.96;92542.81;2068323;69;20148;-77
2022/07/27 10:47:45;;;;;;;4.07;2.03;;;;;;;31.58;33.22;92544.00;2068158;69;20151;-77
2022/07/27 10:50:17;;;;;;;2.45;1.90;;;;;;;33.30;30.58;92546.50;2068377;69;20156;-78
2022/07/27 10:52:46;;;;;;;2.75;1.85;;;;;;;33.72;29.37;92540.97;2068310;69;20562;-78
2022/07/27 10:55:35;;;;;;;2.55;1.75;;;;;;;33.78;27.92;92540.81;2068221;69;20144;-76
2022/07/27 10:58:09;;;;;;;3.50;1.90;;;;;;;34.10;27.30;92545.00;2068310;69;20152;-77
2022/07/27 11:00:47;;;;;;;3.67;1.60;;;;;;;34.13;28.33;92540.53;2068298;69;20369;-77
2022/07/27 11:03:24;;;;;;;4.45;1.85;;;;;;;32.25;30.22;92538.19;2068162;69;20135;-76
2022/07/27 11:05:57;;;;;;;2.45;1.80;;;;;;;32.43;28.88;92534.88;2068255;69;20133;-77
2022/07/27 11:08:27;;;;;;;3.92;2.30;;;;;;;34.88;25.86;92542.56;2068196;69;20149;-77
2022/07/27 11:10:53;;;;;;;2.90;1.85;;;;;;;36.40;24.87;92547.34;2068164;69;20584;-77
2022/07/27 11:13:22;;;;;;;4.53;1.98;;;;;;;40.52;20.12;92550.91;2071486;69;20153;-77
2022/07/27 11:15:57;;;;;;;2.13;1.70;;;;;;;42.50;20.99;92548.09;2068253;69;20232;-77
2022/07/27 11:18:27;;;;;;;2.28;1.90;;;;;;;42.39;20.02;92539.19;2071454;69;20239;-78
2022/07/27 11:21:19;;;;;;;3.42;1.70;;;;;;;40.45;19.36;92544.59;2071577;69;20606;-78
2022/07/27 11:23:54;;;;;;;4.03;1.83;;;;;;;42.58;18.20;92539.44;2068207;69;20140;-77
2022/07/27 11:26:22;;;;;;;4.95;1.67;;;;;;;41.74;17.43;92532.03;2071580;69;20236;-76
2022/07/27 11:28:49;;;;;;;4.45;1.98;;;;;;;42.66;17.62;92528.63;2071562;69;20152;-77
2022/07/27 11:31:15;;;;;;;1.80;1.70;;;;;;;44.42;17.78;92529.41;2068217;69;20144;-76
2022/07/27 11:33:53;;;;;;;4.47;1.70;;;;;;;40.81;18.81;92518.25;2067173;69;20608;-77
2022/07/27 11:36:20;;;;;;;2.42;1.38;;;;;;;45.90;16.23;92526.63;2071227;69;20156;-78
2022/07/27 11:38:53;;;;;;;2.83;1.65;;;;;;;47.32;15.47;92522.81;2068215;69;20176;-78
2022/07/27 11:41:30;;;;;;;3.75;1.55;;;;;;;46.18;16.60;92517.78;2071243;69;20582;-78
2022/07/27 11:44:08;;;;;;;2.72;1.48;;;;;;;46.53;16.63;92524.66;2071473;69;20611;-78
2022/07/27 11:46:43;;;;;;;2.30;1.50;;;;;;;46.66;15.49;92517.78;2071360;69;20172;-78